Time;durP1;ratioP1;P1;durP2;ratioP2;P2;SDS_P1;SDS_P2;PMS_P1;PMS_P2;Temp;Humidity;BMP_temperature;BMP_pressure;BME280_temperature;BME280_humidity;BME280_pressure;Samples;Min_cycle;Max_cycle;Signal;HPM_P1;HPM_P2
2023/12/17 00:01:31;;;;;;;;;;;;;;;7.68;62.83;102720.69;5466549;32;36025;-80
2023/12/17 00:04:33;;;;;;;;;;;;;;;7.68;62.64;102726.81;5463008;32;34742;-78
2023/12/17 00:07:36;;;;;;;;;;;;;;;7.76;62.65;102734.72;5462994;32;35251;-77
2023/12/17 00:10:39;;;;;;;;;;;;;;;7.75;62.30;102725.13;5466434;32;34526;-78
2023/12/17 00:13:41;;;;;;;;;;;;;;;7.97;61.58;102723.56;5462002;32;34595;-78
2023/12/17 00:16:43;;;;;;;;;;;;;;;8.00;61.02;102729.72;5451403;32;35607;-79
2023/12/17 00:19:45;;;;;;;;;;;;;;;8.06;60.91;102728.91;5462454;32;34131;-78
2023/12/17 00:22:48;;;;;;;;;;;;;;;7.88;61.25;102720.00;5446746;32;34302;-79
2023/12/17 00:25:50;;;;;;;;;;;;;;;6.88;64.87;102724.97;5446974;32;35412;-77
2023/12/17 00:28:52;;;;;;;;;;;;;;;7.16;64.75;102728.84;5461843;32;34918;-79
2023/12/17 00:31:54;;;;;;;;;;;;;;;7.10;64.09;102726.16;5466180;32;34949;-79
2023/12/17 00:35:02;;;;;;;;;;;;;;;7.10;64.16;102728.75;5464171;32;34358;-77
2023/12/17 00:38:04;;;;;;;;;;;;;;;6.73;65.55;102716.94;5466683;32;34973;-77
2023/12/17 00:41:06;;;;;;;;;;;;;;;7.21;64.15;102723.66;5461708;32;35193;-77
2023/12/17 00:44:08;;;;;;;;;;;;;;;7.34;63.80;102722.94;5451022;32;34585;-78
2023/12/17 00:47:10;;;;;;;;;;;;;;;7.42;62.41;102713.44;5448427;32;35354;-78
2023/12/17 00:50:13;;;;;;;;;;;;;;;7.44;63.05;102722.19;5463312;32;35090;-78
2023/12/17 00:53:15;;;;;;;;;;;;;;;7.31;63.50;102712.44;5466606;32;35022;-77
2023/12/17 00:56:17;;;;;;;;;;;;;;;7.61;62.37;102706.66;5449867;32;34366;-78
2023/12/17 00:59:19;;;;;;;;;;;;;;;7.65;62.00;102721.53;5469342;32;34863;-77
2023/12/17 01:02:21;;;;;;;;;;;;;;;7.49;62.07;102725.72;5464709;32;34365;-77
2023/12/17 01:05:24;;;;;;;;;;;;;;;7.25;63.21;102736.78;5451278;32;34911;-78
2023/12/17 01:08:26;;;;;;;;;;;;;;;6.94;64.35;102737.25;5466884;32;34720;-77
2023/12/17 01:11:28;;;;;;;;;;;;;;;6.99;63.75;102741.69;5463219;32;35391;-79
2023/12/17 01:14:34;;;;;;;;;;;;;;;6.83;64.41;102738.84;5465968;32;34297;-77
2023/12/17 01:17:37;;;;;;;;;;;;;;;6.35;66.42;102761.66;5463520;32;34350;-78
2023/12/17 01:20:40;;;;;;;;;;;;;;;6.29;66.33;102751.09;5469228;32;34975;-78
2023/12/17 01:23:42;;;;;;;;;;;;;;;6.49;65.40;102740.97;5464178;32;34395;-77
2023/12/17 01:26:45;;;;;;;;;;;;;;;6.77;65.01;102737.03;5451845;32;35343;-77
2023/12/17 01:29:47;;;;;;;;;;;;;;;7.06;63.79;102729.56;5467071;32;35096;-78
2023/12/17 01:32:49;;;;;;;;;;;;;;;6.10;66.38;102728.16;5464024;32;35417;-78
2023/12/17 01:35:51;;;;;;;;;;;;;;;6.72;64.95;102717.81;5469046;32;34815;-79
2023/12/17 01:38:53;;;;;;;;;;;;;;;6.77;64.38;102717.00;5464047;32;34425;-78
2023/12/17 01:41:56;;;;;;;;;;;;;;;7.20;63.54;102722.78;5469702;32;35774;-78
2023/12/17 01:44:58;;;;;;;;;;;;;;;7.33;63.00;102731.63;5447191;32;34781;-79
2023/12/17 01:48:01;;;;;;;;;;;;;;;7.27;62.40;102736.78;5464836;32;35671;-78
2023/12/17 01:51:03;;;;;;;;;;;;;;;7.36;62.13;102729.06;5469655;32;35554;-79
2023/12/17 01:54:06;;;;;;;;;;;;;;;7.41;61.81;102732.63;5470680;32;34860;-77
2023/12/17 01:57:08;;;;;;;;;;;;;;;7.35;61.45;102729.94;5454721;32;35485;-78
2023/12/17 02:00:10;;;;;;;;;;;;;;;7.39;61.54;102730.84;5465039;32;35131;-77
2023/12/17 02:03:12;;;;;;;;;;;;;;;7.14;62.36;102727.06;5454883;32;35496;-78
2023/12/17 02:06:15;;;;;;;;;;;;;;;7.31;62.13;102734.25;5465452;32;34480;-78
2023/12/17 02:09:17;;;;;;;;;;;;;;;7.11;62.25;102743.59;5466663;32;34606;-77
2023/12/17 02:12:24;;;;;;;;;;;;;;;7.25;61.80;102738.53;5470181;32;35807;-77
2023/12/17 02:15:26;;;;;;;;;;;;;;;7.39;61.30;102741.31;5466515;32;34936;-79
2023/12/17 02:18:28;;;;;;;;;;;;;;;7.17;61.95;102734.94;5470299;32;34568;-78
2023/12/17 02:21:30;;;;;;;;;;;;;;;7.26;62.17;102725.47;5466065;32;35326;-79
2023/12/17 02:24:33;;;;;;;;;;;;;;;7.36;61.70;102718.63;5450028;32;34730;-77
2023/12/17 02:27:35;;;;;;;;;;;;;;;7.38;61.55;102716.88;5445040;32;35250;-78
2023/12/17 02:30:37;;;;;;;;;;;;;;;7.12;62.13;102715.69;5464222;32;34472;-78
2023/12/17 02:33:39;;;;;;;;;;;;;;;6.94;62.31;102721.56;5469113;32;35289;-78
2023/12/17 02:36:42;;;;;;;;;;;;;;;7.05;62.33;102723.47;5463705;32;35432;-78
2023/12/17 02:39:44;;;;;;;;;;;;;;;6.02;64.45;102712.38;5453379;32;34313;-78
2023/12/17 02:42:47;;;;;;;;;;;;;;;6.62;64.09;102713.28;5464187;32;34545;-77
2023/12/17 02:45:49;;;;;;;;;;;;;;;6.74;62.96;102710.84;5468892;32;34353;-78
2023/12/17 02:48:51;;;;;;;;;;;;;;;6.13;64.81;102708.22;5463227;32;35492;-78
2023/12/17 02:51:55;;;;;;;;;;;;;;;6.12;65.29;102698.63;5462672;32;35508;-79
2023/12/17 02:54:57;;;;;;;;;;;;;;;5.68;67.35;102708.28;5454815;32;36015;-78
2023/12/17 02:57:59;;;;;;;;;;;;;;;6.16;66.34;102694.31;5463659;32;34629;-77
2023/12/17 03:01:01;;;;;;;;;;;;;;;6.69;64.28;102682.03;5467217;32;34966;-77
2023/12/17 03:04:03;;;;;;;;;;;;;;;6.77;64.06;102682.16;5449776;32;34631;-78
2023/12/17 03:07:06;;;;;;;;;;;;;;;7.12;63.18;102673.84;5467503;32;35048;-79
2023/12/17 03:10:09;;;;;;;;;;;;;;;6.79;63.17;102677.81;5464778;32;35035;-77
2023/12/17 03:13:11;;;;;;;;;;;;;;;7.54;61.40;102674.34;5462738;32;34878;-77
2023/12/17 03:16:13;;;;;;;;;;;;;;;7.21;62.11;102674.84;5467056;32;34438;-77
2023/12/17 03:19:16;;;;;;;;;;;;;;;7.60;61.11;102677.00;5462532;32;36669;-78
2023/12/17 03:22:18;;;;;;;;;;;;;;;7.71;60.73;102673.59;5452792;32;34667;-79
2023/12/17 03:25:21;;;;;;;;;;;;;;;8.04;59.59;102680.84;5463787;32;34955;-77
2023/12/17 03:28:23;;;;;;;;;;;;;;;7.50;60.88;102685.62;5468421;32;34751;-79
2023/12/17 03:31:25;;;;;;;;;;;;;;;7.50;61.18;102679.50;5464623;32;35059;-77
2023/12/17 03:34:27;;;;;;;;;;;;;;;7.58;61.08;102678.72;5463360;32;34364;-76
2023/12/17 03:37:29;;;;;;;;;;;;;;;7.32;61.63;102682.81;5468539;32;34844;-78
2023/12/17 03:40:32;;;;;;;;;;;;;;;7.95;59.67;102676.44;5463148;32;34572;-77
2023/12/17 03:43:34;;;;;;;;;;;;;;;7.80;59.76;102679.81;5453383;32;34647;-77
2023/12/17 03:46:36;;;;;;;;;;;;;;;7.62;60.09;102678.75;5463326;32;35358;-77
2023/12/17 03:49:38;;;;;;;;;;;;;;;7.17;61.55;102690.50;5466892;32;35274;-78
2023/12/17 03:52:41;;;;;;;;;;;;;;;6.76;63.29;102683.00;5462811;32;35518;-78
2023/12/17 03:55:43;;;;;;;;;;;;;;;6.85;62.93;102671.78;5448277;32;35445;-79
2023/12/17 03:58:45;;;;;;;;;;;;;;;6.78;63.22;102663.87;5468698;32;35637;-78
2023/12/17 04:01:47;;;;;;;;;;;;;;;7.06;61.63;102669.44;5446651;32;36299;-79
2023/12/17 04:04:49;;;;;;;;;;;;;;;6.57;63.48;102662.69;5467620;32;34728;-77
2023/12/17 04:07:52;;;;;;;;;;;;;;;6.77;62.85;102669.09;5462317;32;34873;-77
2023/12/17 04:10:54;;;;;;;;;;;;;;;7.08;61.34;102670.31;5465181;32;34617;-78
2023/12/17 04:13:56;;;;;;;;;;;;;;;6.12;63.32;102671.66;5464988;32;34606;-78
2023/12/17 04:16:58;;;;;;;;;;;;;;;6.45;63.34;102672.12;5462128;32;34494;-78
2023/12/17 04:20:00;;;;;;;;;;;;;;;6.59;62.99;102661.00;5465721;32;34985;-78
2023/12/17 04:23:03;;;;;;;;;;;;;;;6.63;62.61;102655.81;5461678;32;35421;-77
2023/12/17 04:26:05;;;;;;;;;;;;;;;5.81;65.05;102647.63;5454249;32;34674;-78
2023/12/17 04:29:07;;;;;;;;;;;;;;;6.08;64.53;102652.44;5465543;32;34869;-77
2023/12/17 04:32:09;;;;;;;;;;;;;;;6.68;62.21;102653.28;5466905;32;34371;-77
2023/12/17 04:35:12;;;;;;;;;;;;;;;7.01;61.11;102658.91;5467899;32;34276;-78
2023/12/17 04:38:16;;;;;;;;;;;;;;;7.14;60.30;102661.66;5463875;32;34843;-78
2023/12/17 04:41:18;;;;;;;;;;;;;;;7.12;59.79;102666.00;5469971;32;34928;-78
2023/12/17 04:44:20;;;;;;;;;;;;;;;7.14;59.47;102674.75;5452647;32;34694;-78
2023/12/17 04:47:22;;;;;;;;;;;;;;;6.01;61.45;102673.19;5468986;32;34732;-78
2023/12/17 04:50:25;;;;;;;;;;;;;;;4.95;64.95;102673.81;5465818;32;34943;-77
2023/12/17 04:53:27;;;;;;;;;;;;;;;5.12;65.18;102668.97;5471355;32;34332;-77
2023/12/17 04:56:29;;;;;;;;;;;;;;;5.03;65.55;102671.41;5453931;32;35561;-78
2023/12/17 04:59:31;;;;;;;;;;;;;;;5.70;64.58;102655.25;5466041;32;35808;-77
2023/12/17 05:02:33;;;;;;;;;;;;;;;6.38;61.73;102649.41;5469227;32;35477;-76
2023/12/17 05:05:35;;;;;;;;;;;;;;;6.38;60.94;102664.19;5465308;32;34722;-76
2023/12/17 05:08:37;;;;;;;;;;;;;;;6.83;59.99;102663.94;5456150;32;34322;-78
2023/12/17 05:11:40;;;;;;;;;;;;;;;6.81;59.40;102668.25;5462063;32;34909;-77
2023/12/17 05:14:42;;;;;;;;;;;;;;;6.32;61.15;102674.56;5466069;32;37199;-77
2023/12/17 05:17:44;;;;;;;;;;;;;;;6.37;61.05;102670.25;5468925;32;34988;-77
2023/12/17 05:20:48;;;;;;;;;;;;;;;6.74;60.00;102669.03;5466258;32;35243;-78
2023/12/17 05:23:50;;;;;;;;;;;;;;;6.86;59.01;102669.19;5469918;32;34105;-77
2023/12/17 05:26:52;;;;;;;;;;;;;;;6.22;60.61;102678.75;5464034;32;34692;-78
2023/12/17 05:29:55;;;;;;;;;;;;;;;6.62;59.59;102669.75;5468745;32;34797;-76
2023/12/17 05:32:57;;;;;;;;;;;;;;;6.08;61.02;102669.81;5466369;32;35142;-79
2023/12/17 05:35:59;;;;;;;;;;;;;;;5.35;63.22;102675.50;5465256;32;34992;-77
2023/12/17 05:39:01;;;;;;;;;;;;;;;6.15;61.95;102675.16;5468921;32;34673;-78
2023/12/17 05:42:04;;;;;;;;;;;;;;;4.80;64.91;102679.59;5465136;32;34723;-78
2023/12/17 05:45:06;;;;;;;;;;;;;;;5.76;63.07;102684.91;5468534;32;35550;-78
2023/12/17 05:48:09;;;;;;;;;;;;;;;6.52;60.02;102696.62;5462181;32;35622;-77
2023/12/17 05:51:12;;;;;;;;;;;;;;;6.33;60.46;102697.19;5470979;32;34572;-77
2023/12/17 05:54:14;;;;;;;;;;;;;;;6.40;60.34;102689.47;5470817;32;35028;-77
2023/12/17 05:57:17;;;;;;;;;;;;;;;6.91;58.03;102688.44;5463794;32;34503;-78
2023/12/17 06:00:19;;;;;;;;;;;;;;;6.93;57.73;102676.25;5468470;32;34970;-78
2023/12/17 06:03:21;;;;;;;;;;;;;;;6.92;58.16;102665.78;5463715;32;34805;-78
2023/12/17 06:06:24;;;;;;;;;;;;;;;7.15;57.03;102664.31;5451993;32;34799;-77
2023/12/17 06:09:28;;;;;;;;;;;;;;;6.97;57.25;102658.88;5463031;32;34337;-78
2023/12/17 06:12:30;;;;;;;;;;;;;;;6.60;58.47;102665.38;5468018;32;34659;-77
2023/12/17 06:15:32;;;;;;;;;;;;;;;6.65;58.53;102659.34;5463902;32;35637;-79
2023/12/17 06:18:35;;;;;;;;;;;;;;;6.84;57.92;102641.28;5463652;32;34416;-77
2023/12/17 06:21:38;;;;;;;;;;;;;;;6.31;59.41;102637.13;5468123;32;36549;-77
2023/12/17 06:24:40;;;;;;;;;;;;;;;6.54;58.49;102636.53;5462659;32;34856;-77
2023/12/17 06:27:42;;;;;;;;;;;;;;;6.59;58.46;102640.09;5468542;32;34412;-79
2023/12/17 06:30:44;;;;;;;;;;;;;;;6.61;58.17;102641.84;5463382;32;34260;-78
2023/12/17 06:33:46;;;;;;;;;;;;;;;6.41;58.90;102632.88;5453537;32;34654;-77
2023/12/17 06:36:49;;;;;;;;;;;;;;;6.40;58.69;102624.16;5448310;32;35086;-79
2023/12/17 06:39:51;;;;;;;;;;;;;;;6.32;59.08;102638.00;5463029;32;34357;-78
2023/12/17 06:42:53;;;;;;;;;;;;;;;6.15;59.79;102650.78;5467491;32;35453;-78
2023/12/17 06:45:55;;;;;;;;;;;;;;;5.98;60.17;102643.56;5463450;32;34627;-77
2023/12/17 06:48:57;;;;;;;;;;;;;;;5.85;60.99;102643.31;5465331;32;34248;-76
2023/12/17 06:52:00;;;;;;;;;;;;;;;5.69;61.25;102655.25;5464704;32;34781;-77
2023/12/17 06:55:03;;;;;;;;;;;;;;;5.79;61.47;102654.53;5467193;32;34021;-76
2023/12/17 06:58:05;;;;;;;;;;;;;;;5.98;60.73;102661.84;5464881;32;35369;-78
2023/12/17 07:01:08;;;;;;;;;;;;;;;5.97;60.82;102644.41;5463500;32;35770;-78
2023/12/17 07:04:10;;;;;;;;;;;;;;;6.20;60.03;102650.00;5467632;32;34353;-78
2023/12/17 07:07:12;;;;;;;;;;;;;;;5.79;60.64;102646.69;5464620;32;35050;-78
2023/12/17 07:10:15;;;;;;;;;;;;;;;6.25;60.51;102639.63;5468650;32;34598;-77
2023/12/17 07:13:18;;;;;;;;;;;;;;;6.62;58.89;102638.38;5463879;32;34357;-77
2023/12/17 07:16:23;;;;;;;;;;;;;;;6.63;58.57;102629.69;5466820;32;35940;-77
2023/12/17 07:19:25;;;;;;;;;;;;;;;6.63;58.62;102636.66;5466101;32;35374;-78
2023/12/17 07:22:28;;;;;;;;;;;;;;;6.60;59.01;102628.78;5462922;32;34990;-78
2023/12/17 07:25:30;;;;;;;;;;;;;;;6.91;58.35;102638.75;5468473;32;35054;-79
2023/12/17 07:28:32;;;;;;;;;;;;;;;6.74;57.98;102641.16;5462414;32;34955;-78
2023/12/17 07:31:34;;;;;;;;;;;;;;;6.51;58.71;102637.38;5467387;32;34177;-78
2023/12/17 07:34:36;;;;;;;;;;;;;;;5.98;60.36;102640.06;5462207;32;35027;-78
2023/12/17 07:37:39;;;;;;;;;;;;;;;6.09;60.28;102632.41;5465044;32;35174;-78
2023/12/17 07:40:41;;;;;;;;;;;;;;;6.26;59.84;102636.16;5465392;32;34652;-78
2023/12/17 07:43:44;;;;;;;;;;;;;;;6.00;60.55;102641.00;5461960;32;34369;-77
2023/12/17 07:46:46;;;;;;;;;;;;;;;5.87;61.32;102646.84;5467961;32;35120;-79
2023/12/17 07:49:48;;;;;;;;;;;;;;;6.07;60.81;102647.19;5460038;32;36174;-65
2023/12/17 07:52:50;;;;;;;;;;;;;;;6.02;60.63;102647.09;5468629;32;35384;-69
2023/12/17 07:55:57;;;;;;;;;;;;;;;6.29;60.16;102649.25;5461641;32;35239;-70
2023/12/17 07:58:59;;;;;;;;;;;;;;;6.31;59.72;102646.66;5444201;32;34196;-69
2023/12/17 08:02:01;;;;;;;;;;;;;;;6.40;59.20;102644.19;5451234;32;34959;-70
2023/12/17 08:05:05;;;;;;;;;;;;;;;6.21;59.77;102654.38;5462736;32;35509;-71
2023/12/17 08:08:08;;;;;;;;;;;;;;;6.72;58.63;102657.69;5466667;32;35114;-69
2023/12/17 08:11:13;;;;;;;;;;;;;;;6.95;57.92;102653.59;5463026;32;35504;-69
2023/12/17 08:14:15;;;;;;;;;;;;;;;7.14;57.24;102654.69;5450417;32;34917;-72
2023/12/17 08:17:17;;;;;;;;;;;;;;;7.06;57.38;102654.63;5463818;32;35506;-71
2023/12/17 08:20:19;;;;;;;;;;;;;;;7.31;56.90;102652.28;5462738;32;34131;-69
2023/12/17 08:23:21;;;;;;;;;;;;;;;7.33;56.82;102658.38;5467501;32;34707;-71
2023/12/17 08:26:24;;;;;;;;;;;;;;;7.41;56.34;102662.00;5462821;32;34490;-72
2023/12/17 08:29:26;;;;;;;;;;;;;;;7.34;57.08;102673.22;5467035;32;35475;-71
2023/12/17 08:32:32;;;;;;;;;;;;;;;7.60;56.25;102666.53;5462454;32;34877;-69
2023/12/17 08:35:37;;;;;;;;;;;;;;;7.85;55.30;102661.50;5466105;32;35542;-69
2023/12/17 08:38:39;;;;;;;;;;;;;;;7.88;55.27;102675.50;5462555;32;34723;-69
2023/12/17 08:41:41;;;;;;;;;;;;;;;7.98;54.97;102675.56;5462715;32;34667;-73
2023/12/17 08:44:43;;;;;;;;;;;;;;;7.98;54.94;102676.44;5466647;32;34557;-74
2023/12/17 08:47:45;;;;;;;;;;;;;;;7.97;55.18;102682.53;5441575;32;34260;-71
2023/12/17 08:50:48;;;;;;;;;;;;;;;8.23;54.32;102685.38;5465606;32;34389;-69
2023/12/17 08:53:50;;;;;;;;;;;;;;;8.17;54.18;102679.19;5467482;32;34964;-72
2023/12/17 08:56:52;;;;;;;;;;;;;;;8.04;54.55;102692.19;5450967;32;34291;-69
2023/12/17 08:59:54;;;;;;;;;;;;;;;8.39;53.85;102689.00;5462800;32;35085;-69
2023/12/17 09:02:57;;;;;;;;;;;;;;;8.29;53.45;102685.41;5447651;32;35345;-69
2023/12/17 09:06:05;;;;;;;;;;;;;;;8.55;53.59;102677.75;5453129;32;35230;-69
2023/12/17 09:09:08;;;;;;;;;;;;;;;8.23;54.67;102684.50;5461844;32;34876;-73
2023/12/17 09:12:13;;;;;;;;;;;;;;;7.90;56.08;102666.78;5465486;32;35014;-70
2023/12/17 09:15:15;;;;;;;;;;;;;;;8.30;54.54;102655.72;5461328;32;36753;-71
2023/12/17 09:18:23;;;;;;;;;;;;;;;8.55;54.08;102663.75;5464276;32;35051;-70
2023/12/17 09:21:26;;;;;;;;;;;;;;;8.95;52.23;102659.56;5449980;32;34982;-75
2023/12/17 09:24:28;;;;;;;;;;;;;;;8.63;52.92;102662.06;5462639;32;34288;-71
2023/12/17 09:27:30;;;;;;;;;;;;;;;8.52;53.39;102671.63;5452030;32;34848;-73
2023/12/17 09:30:33;;;;;;;;;;;;;;;8.67;52.69;102658.59;5461533;32;34938;-70
2023/12/17 09:33:36;;;;;;;;;;;;;;;8.83;52.40;102662.19;5465544;32;35389;-69
2023/12/17 09:36:39;;;;;;;;;;;;;;;9.00;51.81;102657.84;5462125;32;34654;-71
2023/12/17 09:39:44;;;;;;;;;;;;;;;8.68;52.78;102658.59;5449740;32;35139;-70
2023/12/17 09:42:48;;;;;;;;;;;;;;;8.92;52.21;102647.34;5466050;32;36227;-70
2023/12/17 09:45:51;;;;;;;;;;;;;;;8.19;53.86;102659.16;5462311;32;34377;-71
2023/12/17 09:48:53;;;;;;;;;;;;;;;8.94;52.53;102642.97;5450079;32;35047;-69
2023/12/17 09:51:58;;;;;;;;;;;;;;;9.36;51.15;102643.09;5460725;32;35420;-73
2023/12/17 09:55:05;;;;;;;;;;;;;;;9.52;50.62;102649.22;5449671;32;34398;-71
2023/12/17 09:58:09;;;;;;;;;;;;;;;9.31;51.16;102640.44;5461291;32;36172;-70
2023/12/17 10:01:12;;;;;;;;;;;;;;;9.55;50.57;102641.38;5454965;32;33247;-73
2023/12/17 10:04:15;;;;;;;;;;;;;;;8.89;52.14;102630.72;5445403;32;35004;-70
2023/12/17 10:07:18;;;;;;;;;;;;;;;9.61;50.50;102631.75;5447452;32;34695;-70
2023/12/17 10:10:20;;;;;;;;;;;;;;;9.58;50.27;102629.09;5465794;32;35381;-72
2023/12/17 10:13:22;;;;;;;;;;;;;;;9.68;50.40;102625.63;5446859;32;34718;-72
2023/12/17 10:16:25;;;;;;;;;;;;;;;9.68;50.28;102624.75;5451343;32;34637;-73
2023/12/17 10:19:27;;;;;;;;;;;;;;;9.33;50.81;102627.31;5431759;32;971119;-75
2023/12/17 10:22:30;;;;;;;;;;;;;;;9.59;49.83;102620.34;5461392;32;34695;-69
2023/12/17 10:25:33;;;;;;;;;;;;;;;9.59;50.07;102615.09;5465418;32;34784;-71
2023/12/17 10:28:35;;;;;;;;;;;;;;;9.65;50.00;102606.34;5461137;32;35232;-73
2023/12/17 10:31:37;;;;;;;;;;;;;;;9.40;50.89;102598.50;5466148;32;35104;-71
2023/12/17 10:34:40;;;;;;;;;;;;;;;9.30;51.22;102594.09;5461263;32;34383;-69
2023/12/17 10:37:42;;;;;;;;;;;;;;;9.01;51.96;102596.66;5455286;32;34547;-73
2023/12/17 10:40:44;;;;;;;;;;;;;;;8.64;53.76;102591.31;5449394;32;34344;-70
2023/12/17 10:43:46;;;;;;;;;;;;;;;9.44;52.43;102592.34;5447147;32;35411;-72
2023/12/17 10:46:49;;;;;;;;;;;;;;;9.20;52.81;102594.94;5449713;32;35346;-71
2023/12/17 10:49:53;;;;;;;;;;;;;;;10.15;50.60;102587.91;5462018;32;35001;-73
2023/12/17 10:52:55;;;;;;;;;;;;;;;10.16;49.87;102583.53;5467388;32;35131;-72
2023/12/17 10:55:57;;;;;;;;;;;;;;;9.40;52.09;102582.75;5447094;32;34810;-71
2023/12/17 10:58:59;;;;;;;;;;;;;;;10.32;49.50;102581.78;5463745;32;34700;-72
2023/12/17 11:02:01;;;;;;;;;;;;;;;10.24;49.77;102579.16;5463696;32;35320;-73
2023/12/17 11:05:04;;;;;;;;;;;;;;;9.42;52.51;102573.13;5444958;32;34203;-72
2023/12/17 11:08:06;;;;;;;;;;;;;;;10.78;48.88;102562.28;5450903;32;34347;-71
2023/12/17 11:11:08;;;;;;;;;;;;;;;10.35;50.28;102566.00;5461562;32;34333;-71
2023/12/17 11:14:11;;;;;;;;;;;;;;;10.75;48.67;102564.06;5466427;32;34688;-72
2023/12/17 11:17:14;;;;;;;;;;;;;;;11.13;48.35;102550.66;5440311;32;34737;-72
2023/12/17 11:20:16;;;;;;;;;;;;;;;10.03;50.65;102559.91;5448190;32;34701;-72
2023/12/17 11:23:18;;;;;;;;;;;;;;;10.02;51.63;102552.91;5448553;32;35382;-72
2023/12/17 11:26:20;;;;;;;;;;;;;;;10.26;50.85;102552.00;5461649;32;34991;-70
2023/12/17 11:29:37;;;;;;;;;;;;;;;11.52;47.35;102538.06;5435831;32;34384;-71
2023/12/17 11:32:40;;;;;;;;;;;;;;;11.96;46.60;102539.44;5461544;32;35535;-74
2023/12/17 11:35:42;;;;;;;;;;;;;;;12.94;44.09;102529.38;5464479;32;35086;-73
2023/12/17 11:38:44;;;;;;;;;;;;;;;13.43;42.90;102535.69;5453715;32;34357;-75
2023/12/17 11:41:46;;;;;;;;;;;;;;;12.37;44.72;102536.34;5460429;32;34922;-72
2023/12/17 11:44:49;;;;;;;;;;;;;;;11.82;46.63;102536.94;5450694;32;34155;-72
2023/12/17 11:47:51;;;;;;;;;;;;;;;12.11;45.88;102536.66;5439989;32;35596;-72
2023/12/17 11:50:56;;;;;;;;;;;;;;;13.89;42.27;102532.22;5462565;32;34653;-72
2023/12/17 11:53:59;;;;;;;;;;;;;;;12.89;43.33;102533.88;5446256;32;35564;-71
2023/12/17 11:57:02;;;;;;;;;;;;;;;13.89;40.66;102533.09;5464635;32;34246;-70
2023/12/17 12:00:12;;;;;;;;;;;;;;;12.53;43.57;102531.72;5460998;32;34653;-72
2023/12/17 12:03:14;;;;;;;;;;;;;;;13.82;41.92;102518.25;5460646;32;34756;-72
2023/12/17 12:06:17;;;;;;;;;;;;;;;16.20;36.50;102504.66;5450516;32;34400;-73
2023/12/17 12:09:20;;;;;;;;;;;;;;;18.11;33.47;102497.53;5459892;32;35337;-70
2023/12/17 12:12:24;;;;;;;;;;;;;;;19.04;30.57;102493.88;5444590;32;35449;-71
2023/12/17 12:15:26;;;;;;;;;;;;;;;17.66;32.69;102495.56;5444783;32;34782;-71
2023/12/17 12:18:28;;;;;;;;;;;;;;;19.81;29.51;102479.94;5438104;32;35397;-71
2023/12/17 12:21:30;;;;;;;;;;;;;;;16.79;34.41;102499.34;5461390;32;35017;-75
2023/12/17 12:24:36;;;;;;;;;;;;;;;17.42;33.11;102496.44;5432469;32;34754;-73
2023/12/17 12:27:38;;;;;;;;;;;;;;;16.49;34.37;102498.50;5465603;32;35736;-71
2023/12/17 12:30:40;;;;;;;;;;;;;;;17.08;33.76;102489.59;5445923;32;34791;-76
2023/12/17 12:33:55;;;;;;;;;;;;;;;16.64;34.29;102486.53;5464815;32;35249;-72
2023/12/17 12:36:58;;;;;;;;;;;;;;;15.24;36.55;102501.94;5459745;32;35406;-75
2023/12/17 12:40:00;;;;;;;;;;;;;;;17.70;31.85;102501.63;5460555;32;34328;-71
2023/12/17 12:43:07;;;;;;;;;;;;;;;16.26;34.16;102516.88;5464267;32;34100;-72
2023/12/17 12:46:09;;;;;;;;;;;;;;;16.34;33.45;102514.00;5460113;32;34859;-74
2023/12/17 12:49:11;;;;;;;;;;;;;;;17.08;32.55;102502.00;5467584;32;34728;-70
2023/12/17 12:52:13;;;;;;;;;;;;;;;18.21;30.58;102512.22;5464551;32;34930;-73
2023/12/17 12:55:15;;;;;;;;;;;;;;;19.65;28.27;102490.44;5454138;32;35175;-71
2023/12/17 12:58:21;;;;;;;;;;;;;;;19.21;28.68;102509.19;5449141;32;35863;-72
2023/12/17 13:01:24;;;;;;;;;;;;;;;17.33;30.69;102506.47;5462756;32;35597;-71
2023/12/17 13:04:26;;;;;;;;;;;;;;;16.74;31.68;102503.06;5467012;32;34740;-75
2023/12/17 13:07:28;;;;;;;;;;;;;;;16.18;32.32;102511.81;5462647;32;34653;-73
2023/12/17 13:10:31;;;;;;;;;;;;;;;13.88;36.59;102512.84;5466820;32;34329;-72
2023/12/17 13:13:33;;;;;;;;;;;;;;;13.27;37.76;102509.53;5462004;32;34912;-73
2023/12/17 13:16:35;;;;;;;;;;;;;;;13.45;37.52;102507.47;5467004;32;35193;-71
2023/12/17 13:19:38;;;;;;;;;;;;;;;13.66;37.44;102503.59;5443929;32;35497;-71
2023/12/17 13:22:40;;;;;;;;;;;;;;;13.31;38.06;102496.28;5448350;32;34751;-71
2023/12/17 13:25:42;;;;;;;;;;;;;;;10.79;43.22;102511.44;5449901;32;34995;-73
2023/12/17 13:28:44;;;;;;;;;;;;;;;11.94;41.04;102497.31;5462389;32;35092;-71
2023/12/17 13:31:46;;;;;;;;;;;;;;;10.31;44.61;102509.94;5466686;32;33939;-71
2023/12/17 13:34:48;;;;;;;;;;;;;;;11.19;43.35;102505.00;5461440;32;35711;-70
2023/12/17 13:37:51;;;;;;;;;;;;;;;11.26;42.95;102499.66;5465679;32;35113;-72
2023/12/17 13:40:53;;;;;;;;;;;;;;;11.83;42.53;102501.81;5463139;32;34228;-73
2023/12/17 13:43:55;;;;;;;;;;;;;;;10.64;44.78;102511.53;5460903;32;34609;-72
2023/12/17 13:46:57;;;;;;;;;;;;;;;11.23;44.10;102506.75;5466290;32;34880;-73
2023/12/17 13:50:00;;;;;;;;;;;;;;;11.27;43.78;102497.91;5463345;32;34776;-72
2023/12/17 13:53:02;;;;;;;;;;;;;;;11.55;43.32;102495.91;5470687;32;34675;-71
2023/12/17 13:56:05;;;;;;;;;;;;;;;12.75;40.94;102485.66;5461464;32;34232;-70
2023/12/17 13:59:10;;;;;;;;;;;;;;;12.95;40.56;102488.91;5464315;32;35288;-71
2023/12/17 14:02:12;;;;;;;;;;;;;;;13.63;38.73;102495.72;5463432;32;35586;-71
2023/12/17 14:05:14;;;;;;;;;;;;;;;12.34;41.25;102496.81;5461502;32;34359;-73
2023/12/17 14:08:17;;;;;;;;;;;;;;;13.41;39.45;102493.47;5449753;32;34220;-72
2023/12/17 14:11:19;;;;;;;;;;;;;;;13.64;38.28;102493.03;5461849;32;34939;-72
2023/12/17 14:14:31;;;;;;;;;;;;;;;12.93;40.04;102488.03;5466215;32;35393;-74
2023/12/17 14:17:34;;;;;;;;;;;;;;;12.36;41.04;102485.34;5462448;32;34348;-74
2023/12/17 14:20:36;;;;;;;;;;;;;;;12.52;41.16;102487.78;5463481;32;34524;-71
2023/12/17 14:23:38;;;;;;;;;;;;;;;10.92;44.32;102485.91;5437998;32;35681;-70
2023/12/17 14:26:41;;;;;;;;;;;;;;;11.46;43.83;102485.47;5461063;32;35462;-71
2023/12/17 14:29:43;;;;;;;;;;;;;;;11.54;43.55;102479.25;5466582;32;34445;-70
2023/12/17 14:32:45;;;;;;;;;;;;;;;11.45;43.96;102475.81;5461375;32;34955;-73
2023/12/17 14:35:47;;;;;;;;;;;;;;;10.67;45.61;102477.31;5467029;32;34770;-74
2023/12/17 14:38:49;;;;;;;;;;;;;;;10.79;45.58;102473.72;5462291;32;34557;-73
2023/12/17 14:41:52;;;;;;;;;;;;;;;9.99;47.31;102483.75;5463310;32;35354;-72
2023/12/17 14:44:54;;;;;;;;;;;;;;;11.16;45.01;102470.81;5449253;32;34596;-73
2023/12/17 14:47:56;;;;;;;;;;;;;;;10.46;46.31;102477.44;5460006;32;34853;-73
2023/12/17 14:50:58;;;;;;;;;;;;;;;10.09;46.76;102480.19;5464381;32;34846;-69
2023/12/17 14:54:01;;;;;;;;;;;;;;;9.86;47.72;102485.53;5460993;32;35367;-71
2023/12/17 14:57:03;;;;;;;;;;;;;;;10.01;47.64;102480.22;5439791;32;34558;-69
2023/12/17 15:00:06;;;;;;;;;;;;;;;10.18;47.48;102493.31;5462483;32;34431;-74
2023/12/17 15:03:09;;;;;;;;;;;;;;;10.39;46.82;102494.13;5462857;32;35381;-71
2023/12/17 15:06:11;;;;;;;;;;;;;;;10.62;46.10;102500.13;5452291;32;35483;-70
2023/12/17 15:09:26;;;;;;;;;;;;;;;10.64;46.30;102494.87;5461439;32;34227;-71
2023/12/17 15:12:29;;;;;;;;;;;;;;;10.69;46.19;102493.97;5465842;32;35027;-70
2023/12/17 15:15:31;;;;;;;;;;;;;;;10.58;46.44;102474.75;5462004;32;35454;-72
2023/12/17 15:18:35;;;;;;;;;;;;;;;10.88;45.82;102480.69;5465027;32;34478;-70
2023/12/17 15:21:37;;;;;;;;;;;;;;;11.33;44.78;102469.81;5462723;32;35534;-71
2023/12/17 15:24:40;;;;;;;;;;;;;;;11.36;44.85;102474.16;5460823;32;34773;-74
2023/12/17 15:27:42;;;;;;;;;;;;;;;11.21;45.29;102482.19;5463452;32;34390;-72
2023/12/17 15:30:45;;;;;;;;;;;;;;;11.28;45.16;102483.87;5461135;32;34483;-72
2023/12/17 15:33:47;;;;;;;;;;;;;;;11.57;44.33;102475.69;5450405;32;35333;-70
2023/12/17 15:36:50;;;;;;;;;;;;;;;11.23;45.19;102472.53;5444417;32;35053;-72
2023/12/17 15:39:52;;;;;;;;;;;;;;;10.99;45.97;102476.22;5447916;32;34688;-72
2023/12/17 15:42:54;;;;;;;;;;;;;;;11.19;45.37;102465.53;5462625;32;35469;-71
2023/12/17 15:45:57;;;;;;;;;;;;;;;11.26;45.29;102470.72;5461572;32;34514;-72